createdAt,value
2022-10-04T00:02:28.423Z,18.80
2022-10-04T00:07:32.054Z,20.27
2022-10-04T00:12:36.342Z,21.08
2022-10-04T00:17:40.074Z,19.13
2022-10-04T00:23:02.476Z,21.25
2022-10-04T00:28:20.064Z,22.90
2022-10-04T00:33:36.782Z,19.95
2022-10-04T00:38:39.122Z,23.30
2022-10-04T00:43:43.657Z,21.58
2022-10-04T00:48:49.649Z,21.95
2022-10-04T00:54:02.129Z,22.27
2022-10-04T00:59:13.052Z,22.25
2022-10-04T01:04:24.462Z,26.52
2022-10-04T01:09:27.230Z,23.02
2022-10-04T01:14:35.826Z,25.07
2022-10-04T01:19:50.089Z,24.35
2022-10-04T01:24:53.797Z,24.33
2022-10-04T01:29:56.289Z,23.83
2022-10-04T01:34:59.040Z,25.43
2022-10-04T01:40:02.974Z,25.43
2022-10-04T01:45:08.867Z,26.35
2022-10-04T01:50:15.822Z,26.48
2022-10-04T01:55:21.189Z,25.88
2022-10-04T02:00:24.543Z,29.08
2022-10-04T02:05:29.786Z,25.60
2022-10-04T02:10:38.696Z,26.63
2022-10-04T02:15:45.918Z,37.15
2022-10-04T02:25:52.214Z,30.98
2022-10-04T02:31:12.622Z,36.90
2022-10-04T02:36:15.849Z,32.63
2022-10-04T02:41:23.900Z,38.25
2022-10-04T02:46:28.631Z,38.22
2022-10-04T02:51:33.370Z,41.60
2022-10-04T02:56:37.467Z,41.08
2022-10-04T03:01:47.478Z,43.40
2022-10-04T03:06:50.601Z,42.80
2022-10-04T03:11:54.435Z,46.70
2022-10-04T03:17:00.583Z,47.53
2022-10-04T03:22:03.619Z,47.08
2022-10-04T03:27:08.727Z,53.47
2022-10-04T03:32:13.674Z,47.17
2022-10-04T03:37:17.381Z,48.63
2022-10-04T03:42:22.918Z,55.15
2022-10-04T03:47:27.018Z,50.42
2022-10-04T03:52:32.466Z,50.90
2022-10-04T03:57:37.683Z,47.40
2022-10-04T04:02:45.795Z,48.58
2022-10-04T04:07:50.687Z,51.10
2022-10-04T04:12:56.364Z,49.55
2022-10-04T04:18:00.914Z,52.40
2022-10-04T04:23:05.326Z,46.80
2022-10-04T04:28:14.518Z,50.72
2022-10-04T04:33:22.795Z,45.25
2022-10-04T04:38:26.064Z,53.58
2022-10-04T04:43:29.825Z,60.45
2022-10-04T04:48:32.164Z,59.45
2022-10-04T04:53:34.517Z,58.30
2022-10-04T04:58:39.748Z,53.75
2022-10-04T05:03:42.195Z,56.83
2022-10-04T05:08:50.158Z,60.55
2022-10-04T05:13:56.007Z,55.10
2022-10-04T05:18:59.730Z,51.92
2022-10-04T05:24:09.486Z,50.78
2022-10-04T05:29:17.181Z,58.75
2022-10-04T05:34:22.693Z,56.30
2022-10-04T05:39:27.756Z,59.50
2022-10-04T05:44:36.123Z,51.08
2022-10-04T05:49:43.893Z,54.30
2022-10-04T05:54:46.261Z,54.08
2022-10-04T05:59:58.473Z,58.83
2022-10-04T06:05:10.561Z,48.03
2022-10-04T06:10:27.127Z,49.75
2022-10-04T06:15:42.742Z,50.25
2022-10-04T06:20:51.462Z,38.30
2022-10-04T06:26:00.703Z,42.67
2022-10-04T06:31:15.416Z,44.40
2022-10-04T06:36:37.760Z,36.95
2022-10-04T06:41:43.709Z,34.05
2022-10-04T06:46:48.794Z,30.20
2022-10-04T06:51:57.894Z,29.95
2022-10-04T06:57:15.117Z,31.20
2022-10-04T07:02:21.487Z,30.00
2022-10-04T07:07:25.790Z,17.25
2022-10-04T07:12:28.537Z,18.88
2022-10-04T07:17:33.813Z,16.53
2022-10-04T07:22:38.272Z,12.95
2022-10-04T07:27:46.309Z,10.80
2022-10-04T07:32:51.711Z,12.40
2022-10-04T07:37:58.908Z,12.20
2022-10-04T07:43:04.771Z,11.23
2022-10-04T07:48:15.351Z,11.57
2022-10-04T07:53:19.088Z,9.32
2022-10-04T07:58:26.920Z,10.27
2022-10-04T08:03:42.746Z,9.45
2022-10-04T08:08:53.253Z,8.57
2022-10-04T08:14:01.888Z,7.57
2022-10-04T08:19:22.632Z,11.20
2022-10-04T08:24:29.068Z,8.52
2022-10-04T08:29:43.386Z,7.82
2022-10-04T08:34:58.243Z,8.15
2022-10-04T08:40:24.295Z,9.70
2022-10-04T08:45:38.936Z,6.90
2022-10-04T08:51:04.178Z,9.73
2022-10-04T08:56:10.132Z,7.00
2022-10-04T09:01:21.165Z,6.13
2022-10-04T09:06:36.299Z,10.02
2022-10-04T09:11:45.537Z,6.18
2022-10-04T09:16:48.543Z,6.93
2022-10-04T09:22:02.548Z,9.52
2022-10-04T09:27:12.748Z,5.97
2022-10-04T09:32:26.714Z,9.63
2022-10-04T09:37:44.434Z,5.28
2022-10-04T09:42:55.106Z,8.43
2022-10-04T09:48:07.767Z,10.32
2022-10-04T09:53:21.394Z,7.83
2022-10-04T09:58:43.221Z,7.93
2022-10-04T10:04:09.892Z,7.03
2022-10-04T10:09:19.419Z,10.15
2022-10-04T10:14:29.005Z,9.52
2022-10-04T10:19:39.460Z,7.90
2022-10-04T10:24:58.665Z,9.30
2022-10-04T10:30:18.515Z,8.73
2022-10-04T10:35:25.889Z,8.52
2022-10-04T10:40:45.206Z,8.05
2022-10-04T10:45:58.850Z,8.27
2022-10-04T10:51:10.877Z,9.52
2022-10-04T10:56:32.725Z,10.18
2022-10-04T11:01:47.239Z,6.18
2022-10-04T11:07:11.111Z,6.05
2022-10-04T11:12:25.373Z,6.68
2022-10-04T11:17:38.470Z,7.82
2022-10-04T11:27:57.177Z,8.00
2022-10-04T11:33:25.073Z,8.90
2022-10-04T11:38:35.639Z,9.18
2022-10-04T11:43:50.137Z,10.63
2022-10-04T11:48:57.372Z,7.85
2022-10-04T11:54:28.620Z,8.15
2022-10-04T11:59:38.812Z,8.15
2022-10-04T12:05:01.148Z,8.27
2022-10-04T12:10:12.249Z,8.85
2022-10-04T12:15:28.686Z,11.82
2022-10-04T12:20:41.774Z,6.55
2022-10-04T12:31:02.718Z,9.23
2022-10-04T12:36:13.437Z,8.27
2022-10-04T12:41:22.722Z,7.53
2022-10-04T12:46:32.051Z,12.10
2022-10-04T12:51:39.096Z,8.15
2022-10-04T12:56:47.189Z,10.80
2022-10-04T13:01:57.487Z,10.88
2022-10-04T13:07:12.152Z,7.57
2022-10-04T13:12:22.957Z,9.40
2022-10-04T13:17:36.121Z,9.32
2022-10-04T13:22:56.482Z,7.30
2022-10-04T13:28:02.404Z,7.90
2022-10-04T13:33:12.062Z,8.45
2022-10-04T13:38:32.663Z,9.23
2022-10-04T13:43:43.455Z,9.50
2022-10-04T13:48:53.441Z,10.02
2022-10-04T13:54:18.372Z,7.35
2022-10-04T13:59:25.075Z,10.68
2022-10-04T14:04:42.189Z,8.63
2022-10-04T14:09:56.822Z,9.50
2022-10-04T14:15:17.104Z,7.40
2022-10-04T14:20:43.473Z,9.02
2022-10-04T14:25:55.907Z,9.70
2022-10-04T14:31:03.885Z,7.15
2022-10-04T14:36:17.139Z,7.63
2022-10-04T14:41:32.307Z,9.93
2022-10-04T14:46:40.443Z,6.50
2022-10-04T14:51:56.843Z,4.95
2022-10-04T14:57:03.476Z,7.75
2022-10-04T15:02:13.186Z,7.70
2022-10-04T15:07:18.422Z,7.18
2022-10-04T15:13:09.252Z,5.43
2022-10-04T15:18:06.090Z,7.20
2022-10-04T15:23:11.568Z,6.20
2022-10-04T15:28:28.788Z,5.43
2022-10-04T15:33:35.202Z,5.97
2022-10-04T15:38:45.381Z,10.70
2022-10-04T15:44:12.562Z,8.68
2022-10-04T15:49:25.938Z,9.77
2022-10-04T15:54:44.469Z,8.02
2022-10-04T15:59:52.091Z,10.48
2022-10-04T16:05:06.842Z,9.52
2022-10-04T16:10:15.685Z,7.97
2022-10-04T16:15:31.572Z,6.57
2022-10-04T16:20:40.598Z,8.80
2022-10-04T16:25:44.841Z,9.50
2022-10-04T16:30:52.347Z,7.40
2022-10-04T16:36:10.233Z,8.32
2022-10-04T16:41:15.534Z,8.40
2022-10-04T16:46:25.053Z,9.15
2022-10-04T16:51:35.864Z,9.02
2022-10-04T16:56:53.901Z,9.95
2022-10-04T17:02:06.971Z,9.93
2022-10-04T17:07:14.700Z,7.28
2022-10-04T17:12:18.962Z,9.73
2022-10-04T17:17:24.678Z,10.18
2022-10-04T17:22:33.603Z,12.45
2022-10-04T17:27:46.758Z,10.77
2022-10-04T17:33:03.641Z,11.15
2022-10-04T17:38:09.413Z,11.07
2022-10-04T17:43:18.626Z,9.82
2022-10-04T17:48:42.397Z,9.27
2022-10-04T17:54:04.317Z,15.50
2022-10-04T17:59:12.049Z,10.88
2022-10-04T18:04:20.305Z,8.60
2022-10-04T18:09:24.326Z,10.18
2022-10-04T18:14:46.044Z,14.85
2022-10-04T18:19:57.554Z,10.77
2022-10-04T18:25:12.058Z,11.35
2022-10-04T18:30:15.535Z,9.15
2022-10-04T18:35:27.724Z,9.77
2022-10-04T18:40:49.083Z,11.57
2022-10-04T18:46:00.342Z,9.10
2022-10-04T18:51:21.672Z,11.82
2022-10-04T18:56:24.814Z,12.23
2022-10-04T19:01:52.798Z,12.10
2022-10-04T19:06:59.135Z,10.13
2022-10-04T19:12:04.862Z,10.88
2022-10-04T19:17:26.262Z,9.70
2022-10-04T19:22:39.053Z,10.73
2022-10-04T19:27:45.241Z,10.43
2022-10-04T19:32:57.436Z,13.80
2022-10-04T19:38:06.973Z,11.95
2022-10-04T19:43:11.521Z,12.35
2022-10-04T19:48:21.983Z,13.15
2022-10-04T19:53:31.023Z,15.38
2022-10-04T19:58:37.750Z,15.15
2022-10-04T20:03:40.529Z,14.45
2022-10-04T20:08:51.669Z,12.05
2022-10-04T20:14:15.234Z,11.77
2022-10-04T20:19:19.241Z,10.30
2022-10-04T20:24:44.968Z,10.65
2022-10-04T20:30:05.153Z,11.23
2022-10-04T20:35:25.463Z,12.60
2022-10-04T20:40:42.737Z,11.88
2022-10-04T20:45:47.479Z,11.75
2022-10-04T20:50:50.337Z,10.05
2022-10-04T20:56:02.985Z,9.38
2022-10-04T21:01:38.916Z,14.27
2022-10-04T21:06:51.427Z,9.10
2022-10-04T21:11:54.254Z,12.23
2022-10-04T21:17:02.354Z,9.02
2022-10-04T21:22:06.150Z,10.57
2022-10-04T21:27:10.583Z,10.35
2022-10-04T21:32:15.313Z,10.43
2022-10-04T21:37:18.219Z,8.80
2022-10-04T21:42:20.634Z,11.50
2022-10-04T21:47:24.534Z,8.40
2022-10-04T21:52:26.921Z,9.48
2022-10-04T21:57:35.421Z,10.00
2022-10-04T22:02:39.572Z,7.60
2022-10-04T22:07:41.965Z,8.43
2022-10-04T22:12:44.399Z,11.23
2022-10-04T22:17:49.131Z,9.67
2022-10-04T22:22:51.545Z,12.25
2022-10-04T22:27:54.178Z,10.40
2022-10-04T22:32:59.325Z,8.77
2022-10-04T22:38:01.828Z,8.75
2022-10-04T22:43:04.318Z,9.07
2022-10-04T22:48:12.833Z,8.93
2022-10-04T22:53:18.147Z,11.98
2022-10-04T22:58:22.318Z,8.63
2022-10-04T23:03:28.198Z,8.27
2022-10-04T23:08:31.052Z,9.90
2022-10-04T23:13:33.442Z,9.13
2022-10-04T23:18:38.121Z,8.23
2022-10-04T23:23:40.524Z,9.63
2022-10-04T23:28:42.946Z,8.77
2022-10-04T23:33:47.675Z,8.07
2022-10-04T23:38:54.167Z,11.00
2022-10-04T23:43:57.616Z,9.38
2022-10-04T23:49:01.513Z,7.97
2022-10-04T23:54:03.954Z,11.10
2022-10-04T23:59:06.437Z,12.13
